Balkar Trust — 3FXS7 — position and weather

sailwx.info

Track history (hours):
 
Tides and Currents Weather Stations Pressure Air Temp Water Temp Dewpoint Dewpoint Depression Visibility Wind Speed Wind Dir Waves Ship Positions

Balkar Trust

Last reported at 2017-Aug-18 09:24 UTC. Time now 2017-Aug-21 15:37 UTC.
Position N 01°18' E 103°21'.

Length 185 m; draft 11.1 m.

Type: Cargo ship. MMSI: 372927000.

Date/timePositionNaut miles runAvg speedWind from/ knotsBaromVisibWave heightAir tempDewpointWater temp
2017-Aug-18 09:24N 01°18' E 103°21'513.5
2017-Aug-18 09:01N 01°14' E 103°25'713.9
2017-Aug-18 08:30N 01°13' E 103°32'714.3
2017-Aug-18 08:00N 01°11' E 103°39'612.8
2017-Aug-18 07:30N 01°08' E 103°44'714.5
2017-Aug-18 07:00N 01°12' E 103°51'612.8
2017-Aug-18 06:30N 01°14' E 103°57'4 8.0
2017-Aug-18 06:00N 01°17' E 103°60'0 0.1
2017-Aug-18 04:33N 01°17' E 103°60'0 0.0
2017-Aug-18 04:15N 01°17' E 103°60'0 0.0
2017-Aug-18 04:00N 01°17' E 103°60'0 0.0
2017-Aug-18 00:18N 01°18' E 103°60'0 0.2
2017-Aug-18 00:00N 01°18' E 103°60'0 0.1
2017-Aug-17 23:27N 01°18' E 103°60'0 0.0
2017-Aug-17 23:00N 01°18' E 103°60'0 0.1
2017-Aug-17 22:27N 01°18' E 103°60'0 0.1
2017-Aug-17 21:42N 01°17' E 103°60'0 0.2
2017-Aug-17 21:18N 01°17' E 103°60'0 0.0
2017-Aug-17 20:06N 01°17' E 103°60'0 0.0
2017-Aug-17 19:51N 01°17' E 103°60'0 0.0
2017-Aug-17 17:48N 01°17' E 103°60'0 0.2
2017-Aug-17 17:30N 01°17' E 103°60'2 3.7
2017-Aug-17 17:00N 01°17' E 104°02'1 1.0
2017-Aug-17 16:27N 01°16' E 104°01'3 7.7
2017-Aug-17 16:00N 01°17' E 104°05'9 8.5
2017-Aug-17 14:55N 01°18' E 104°14'  
2017-Aug-12 21:50N 20°53' E 110°57'412.0
2017-Aug-12 21:30N 20°57' E 110°55'510.5
2017-Aug-12 21:00N 21°01' E 110°52'611.0
2017-Aug-12 20:29N 21°02' E 110°46'511.0
2017-Aug-12 20:00N 21°03' E 110°40'611.1
2017-Aug-12 19:30N 21°04' E 110°34'4 7.8
2017-Aug-12 19:00N 21°05' E 110°30'0 0.5
2017-Aug-12 18:30N 21°05' E 110°30'0 0.0
2017-Aug-12 18:00N 21°05' E 110°30'0 0.0
2017-Aug-12 17:30N 21°05' E 110°30'0 0.0
2017-Aug-12 17:00N 21°05' E 110°30'0 0.0
2017-Aug-12 16:30N 21°05' E 110°30'0 0.0
2017-Aug-12 16:00N 21°05' E 110°30'0 0.0
2017-Aug-12 15:30N 21°05' E 110°30'0 0.0
2017-Aug-12 15:00N 21°05' E 110°30'0 0.0
2017-Aug-12 14:30N 21°05' E 110°30'0 0.0
2017-Aug-12 14:00N 21°05' E 110°30'0 0.0
2017-Aug-12 13:30N 21°05' E 110°30'0 0.0
2017-Aug-12 13:00N 21°05' E 110°30'0 0.0
2017-Aug-12 12:30N 21°05' E 110°30'0 0.0
2017-Aug-12 12:00N 21°05' E 110°30'0 0.0
2017-Aug-12 11:30N 21°05' E 110°30'0 0.0
2017-Aug-12 11:00N 21°05' E 110°30'0 0.0
2017-Aug-12 10:30N 21°05' E 110°30'0 0.0
2017-Aug-12 10:00N 21°05' E 110°30'0 0.0
2017-Aug-12 09:30N 21°05' E 110°30'0 0.0
2017-Aug-12 09:00N 21°05' E 110°30'0 0.0
2017-Aug-12 08:30N 21°05' E 110°30'0 0.0
2017-Aug-12 08:00N 21°05' E 110°30'0 0.0
2017-Aug-12 07:30N 21°05' E 110°30'0 0.0
2017-Aug-12 07:00N 21°05' E 110°30'0 0.0
2017-Aug-12 06:30N 21°05' E 110°30'0 0.0
2017-Aug-12 06:00N 21°05' E 110°30'0 0.0
2017-Aug-12 05:30N 21°05' E 110°30'0 0.0
2017-Aug-12 05:00N 21°05' E 110°30'0 0.0
2017-Aug-12 04:30N 21°05' E 110°30'0 0.0
2017-Aug-12 04:00N 21°05' E 110°30'0 0.0
2017-Aug-12 03:30N 21°05' E 110°30'0 0.0
2017-Aug-12 03:00N 21°05' E 110°30'0 0.0
2017-Aug-12 02:30N 21°05' E 110°30'0 0.0
2017-Aug-12 02:00N 21°05' E 110°30'0 0.0
2017-Aug-12 01:30N 21°05' E 110°30'0 0.0
2017-Aug-12 01:00N 21°05' E 110°30'0 0.0
2017-Aug-12 00:30N 21°05' E 110°30'0 0.3
2017-Aug-12 00:00N 21°05' E 110°30'2 3.2
2017-Aug-11 23:30N 21°05' E 110°32'611.5
2017-Aug-11 23:00N 21°03' E 110°38'612.1
2017-Aug-11 22:30N 21°02' E 110°44'611.4
2017-Aug-11 22:00N 21°02' E 110°50'4 8.5
2017-Aug-11 21:30N 20°60' E 110°54'4 7.6
2017-Aug-11 21:00N 20°56' E 110°54'50510.8
2017-Aug-09 22:11N 22°36' E 119°47'212.2
2017-Aug-09 22:00N 22°38' E 119°49'611.3
2017-Aug-09 21:27N 22°44' E 119°51'511.9
2017-Aug-09 21:00N 22°49' E 119°51'  
Track history (hours):
 
Tides and Currents Weather Stations Pressure Air Temp Water Temp Dewpoint Dewpoint Depression Visibility Wind Speed Wind Dir Waves Ship Positions

Balkar Trust

Last reported at 2017-Aug-18 09:24 UTC. Time now 2017-Aug-21 15:37 UTC.
Position N 01°18' E 103°21'.

Length 185 m; draft 11.1 m.

Type: Cargo ship. MMSI: 372927000.

Date/timePositionNaut miles runAvg speedWind from/ knotsBaromVisibWave heightAir tempDewpointWater temp
2017-Aug-18 09:24N 01°18' E 103°21'513.5
2017-Aug-18 09:01N 01°14' E 103°25'713.9
2017-Aug-18 08:30N 01°13' E 103°32'714.3
2017-Aug-18 08:00N 01°11' E 103°39'612.8
2017-Aug-18 07:30N 01°08' E 103°44'714.5
2017-Aug-18 07:00N 01°12' E 103°51'612.8
2017-Aug-18 06:30N 01°14' E 103°57'4 8.0
2017-Aug-18 06:00N 01°17' E 103°60'0 0.1
2017-Aug-18 04:33N 01°17' E 103°60'0 0.0
2017-Aug-18 04:15N 01°17' E 103°60'0 0.0
2017-Aug-18 04:00N 01°17' E 103°60'0 0.0
2017-Aug-18 00:18N 01°18' E 103°60'0 0.2
2017-Aug-18 00:00N 01°18' E 103°60'0 0.1
2017-Aug-17 23:27N 01°18' E 103°60'0 0.0
2017-Aug-17 23:00N 01°18' E 103°60'0 0.1
2017-Aug-17 22:27N 01°18' E 103°60'0 0.1
2017-Aug-17 21:42N 01°17' E 103°60'0 0.2
2017-Aug-17 21:18N 01°17' E 103°60'0 0.0
2017-Aug-17 20:06N 01°17' E 103°60'0 0.0
2017-Aug-17 19:51N 01°17' E 103°60'0 0.0
2017-Aug-17 17:48N 01°17' E 103°60'0 0.2
2017-Aug-17 17:30N 01°17' E 103°60'2 3.7
2017-Aug-17 17:00N 01°17' E 104°02'1 1.0
2017-Aug-17 16:27N 01°16' E 104°01'3 7.7
2017-Aug-17 16:00N 01°17' E 104°05'9 8.5
2017-Aug-17 14:55N 01°18' E 104°14'  
2017-Aug-12 21:50N 20°53' E 110°57'412.0
2017-Aug-12 21:30N 20°57' E 110°55'510.5
2017-Aug-12 21:00N 21°01' E 110°52'611.0
2017-Aug-12 20:29N 21°02' E 110°46'511.0
2017-Aug-12 20:00N 21°03' E 110°40'611.1
2017-Aug-12 19:30N 21°04' E 110°34'4 7.8
2017-Aug-12 19:00N 21°05' E 110°30'0 0.5
2017-Aug-12 18:30N 21°05' E 110°30'0 0.0
2017-Aug-12 18:00N 21°05' E 110°30'0 0.0
2017-Aug-12 17:30N 21°05' E 110°30'0 0.0
2017-Aug-12 17:00N 21°05' E 110°30'0 0.0
2017-Aug-12 16:30N 21°05' E 110°30'0 0.0
2017-Aug-12 16:00N 21°05' E 110°30'0 0.0
2017-Aug-12 15:30N 21°05' E 110°30'0 0.0
2017-Aug-12 15:00N 21°05' E 110°30'0 0.0
2017-Aug-12 14:30N 21°05' E 110°30'0 0.0
2017-Aug-12 14:00N 21°05' E 110°30'0 0.0
2017-Aug-12 13:30N 21°05' E 110°30'0 0.0
2017-Aug-12 13:00N 21°05' E 110°30'0 0.0
2017-Aug-12 12:30N 21°05' E 110°30'0 0.0
2017-Aug-12 12:00N 21°05' E 110°30'0 0.0
2017-Aug-12 11:30N 21°05' E 110°30'0 0.0
2017-Aug-12 11:00N 21°05' E 110°30'0 0.0
2017-Aug-12 10:30N 21°05' E 110°30'0 0.0
2017-Aug-12 10:00N 21°05' E 110°30'0 0.0
2017-Aug-12 09:30N 21°05' E 110°30'0 0.0
2017-Aug-12 09:00N 21°05' E 110°30'0 0.0
2017-Aug-12 08:30N 21°05' E 110°30'0 0.0
2017-Aug-12 08:00N 21°05' E 110°30'0 0.0
2017-Aug-12 07:30N 21°05' E 110°30'0 0.0
2017-Aug-12 07:00N 21°05' E 110°30'0 0.0
2017-Aug-12 06:30N 21°05' E 110°30'0 0.0
2017-Aug-12 06:00N 21°05' E 110°30'0 0.0
2017-Aug-12 05:30N 21°05' E 110°30'0 0.0
2017-Aug-12 05:00N 21°05' E 110°30'0 0.0
2017-Aug-12 04:30N 21°05' E 110°30'0 0.0
2017-Aug-12 04:00N 21°05' E 110°30'0 0.0
2017-Aug-12 03:30N 21°05' E 110°30'0 0.0
2017-Aug-12 03:00N 21°05' E 110°30'0 0.0
2017-Aug-12 02:30N 21°05' E 110°30'0 0.0
2017-Aug-12 02:00N 21°05' E 110°30'0 0.0
2017-Aug-12 01:30N 21°05' E 110°30'0 0.0
2017-Aug-12 01:00N 21°05' E 110°30'0 0.0
2017-Aug-12 00:30N 21°05' E 110°30'0 0.3
2017-Aug-12 00:00N 21°05' E 110°30'2 3.2
2017-Aug-11 23:30N 21°05' E 110°32'611.5
2017-Aug-11 23:00N 21°03' E 110°38'612.1
2017-Aug-11 22:30N 21°02' E 110°44'611.4
2017-Aug-11 22:00N 21°02' E 110°50'4 8.5
2017-Aug-11 21:30N 20°60' E 110°54'4 7.6
2017-Aug-11 21:00N 20°56' E 110°54'50510.8
2017-Aug-09 22:11N 22°36' E 119°47'212.2
2017-Aug-09 22:00N 22°38' E 119°49'611.3
2017-Aug-09 21:27N 22°44' E 119°51'511.9
2017-Aug-09 21:00N 22°49' E 119°51'  

Dump ship's entire track history